sensor_id;sensor_type;location;lat;lon;timestamp;pressure;altitude;pressure_sealevel;temperature;humidity
9969;BME280;5025;48.890;9.278;2024-02-26T00:00:21;96900.94;;;8.60;57.64
9969;BME280;5025;48.890;9.278;2024-02-26T00:02:47;96905.81;;;8.63;57.59
9969;BME280;5025;48.890;9.278;2024-02-26T00:05:12;96911.19;;;8.63;57.50
9969;BME280;5025;48.890;9.278;2024-02-26T00:07:38;96911.69;;;8.60;57.49
9969;BME280;5025;48.890;9.278;2024-02-26T00:10:04;96909.56;;;8.62;57.52
9969;BME280;5025;48.890;9.278;2024-02-26T00:12:29;96914.13;;;8.61;57.50
9969;BME280;5025;48.890;9.278;2024-02-26T00:14:55;96912.25;;;8.62;57.62
9969;BME280;5025;48.890;9.278;2024-02-26T00:17:22;96916.56;;;8.63;57.62
9969;BME280;5025;48.890;9.278;2024-02-26T00:19:48;96912.53;;;8.66;57.36
9969;BME280;5025;48.890;9.278;2024-02-26T00:22:13;96907.41;;;8.64;57.16
9969;BME280;5025;48.890;9.278;2024-02-26T00:24:40;96908.22;;;8.65;57.23
9969;BME280;5025;48.890;9.278;2024-02-26T00:27:05;96914.41;;;8.65;57.02
9969;BME280;5025;48.890;9.278;2024-02-26T00:29:30;96903.66;;;8.65;56.79
9969;BME280;5025;48.890;9.278;2024-02-26T00:31:55;96903.66;;;8.65;56.77
9969;BME280;5025;48.890;9.278;2024-02-26T00:34:21;96898.25;;;8.65;56.71
9969;BME280;5025;48.890;9.278;2024-02-26T00:36:46;96895.84;;;8.64;56.68
9969;BME280;5025;48.890;9.278;2024-02-26T00:39:11;96889.66;;;8.63;56.51
9969;BME280;5025;48.890;9.278;2024-02-26T00:41:40;96886.69;;;8.65;56.37
9969;BME280;5025;48.890;9.278;2024-02-26T00:44:06;96880.22;;;8.60;56.23
9969;BME280;5025;48.890;9.278;2024-02-26T00:46:31;96888.56;;;8.59;55.76
9969;BME280;5025;48.890;9.278;2024-02-26T00:48:56;96883.16;;;8.59;55.57
9969;BME280;5025;48.890;9.278;2024-02-26T00:51:22;96883.97;;;8.59;55.47
9969;BME280;5025;48.890;9.278;2024-02-26T00:53:47;96882.91;;;8.60;55.40
9969;BME280;5025;48.890;9.278;2024-02-26T00:56:12;96882.66;;;8.62;55.14
9969;BME280;5025;48.890;9.278;2024-02-26T00:58:37;96882.13;;;8.65;55.04
9969;BME280;5025;48.890;9.278;2024-02-26T01:01:03;96868.66;;;8.65;55.17
9969;BME280;5025;48.890;9.278;2024-02-26T01:03:28;96878.06;;;8.63;55.05
9969;BME280;5025;48.890;9.278;2024-02-26T01:05:54;96879.91;;;8.52;55.35
9969;BME280;5025;48.890;9.278;2024-02-26T01:08:19;96886.28;;;8.35;55.81
9969;BME280;5025;48.890;9.278;2024-02-26T01:10:44;96885.75;;;8.38;55.90
9969;BME280;5025;48.890;9.278;2024-02-26T01:13:10;96897.59;;;8.42;55.82
9969;BME280;5025;48.890;9.278;2024-02-26T01:15:35;96893.59;;;8.45;55.61
9969;BME280;5025;48.890;9.278;2024-02-26T01:18:01;96901.16;;;8.48;55.72
9969;BME280;5025;48.890;9.278;2024-02-26T01:20:26;96909.75;;;8.45;55.82
9969;BME280;5025;48.890;9.278;2024-02-26T01:22:51;96899.78;;;8.46;55.86
9969;BME280;5025;48.890;9.278;2024-02-26T01:25:16;96906.78;;;8.47;55.75
9969;BME280;5025;48.890;9.278;2024-02-26T01:27:42;96910.00;;;8.49;55.81
9969;BME280;5025;48.890;9.278;2024-02-26T01:30:09;96896.31;;;8.50;55.78
9969;BME280;5025;48.890;9.278;2024-02-26T01:32:34;96890.94;;;8.50;55.90
9969;BME280;5025;48.890;9.278;2024-02-26T01:35:01;96885.81;;;8.49;55.98
9969;BME280;5025;48.890;9.278;2024-02-26T01:37:28;96882.06;;;8.50;55.84
9969;BME280;5025;48.890;9.278;2024-02-26T01:39:54;96892.81;;;8.50;56.32
9969;BME280;5025;48.890;9.278;2024-02-26T01:42:20;96885.81;;;8.49;56.30
9969;BME280;5025;48.890;9.278;2024-02-26T01:44:45;96861.06;;;8.47;56.35
9969;BME280;5025;48.890;9.278;2024-02-26T01:47:11;96870.19;;;8.46;56.52
9969;BME280;5025;48.890;9.278;2024-02-26T01:49:39;96885.78;;;8.43;56.41
9969;BME280;5025;48.890;9.278;2024-02-26T01:52:06;96895.41;;;8.39;56.67
9969;BME280;5025;48.890;9.278;2024-02-26T01:54:34;96881.16;;;8.39;56.54
9969;BME280;5025;48.890;9.278;2024-02-26T01:57:00;96890.88;;;8.40;56.47
9969;BME280;5025;48.890;9.278;2024-02-26T01:59:26;96882.53;;;8.41;56.38
9969;BME280;5025;48.890;9.278;2024-02-26T02:01:55;96897.84;;;8.41;56.45
9969;BME280;5025;48.890;9.278;2024-02-26T02:04:23;96914.75;;;8.31;56.57
9969;BME280;5025;48.890;9.278;2024-02-26T02:06:50;96933.75;;;8.19;56.99
9969;BME280;5025;48.890;9.278;2024-02-26T02:09:16;96931.31;;;8.18;57.23
9969;BME280;5025;48.890;9.278;2024-02-26T02:11:41;96928.38;;;8.19;57.18
9969;BME280;5025;48.890;9.278;2024-02-26T02:14:07;96928.69;;;8.23;57.24
9969;BME280;5025;48.890;9.278;2024-02-26T02:16:32;96922.22;;;8.24;57.13
9969;BME280;5025;48.890;9.278;2024-02-26T02:18:58;96920.88;;;8.21;57.42
9969;BME280;5025;48.890;9.278;2024-02-26T02:21:23;96924.38;;;8.22;57.09
9969;BME280;5025;48.890;9.278;2024-02-26T02:23:49;96937.00;;;8.21;57.63
9969;BME280;5025;48.890;9.278;2024-02-26T02:26:15;96935.63;;;8.19;57.52
9969;BME280;5025;48.890;9.278;2024-02-26T02:28:41;96935.13;;;8.22;57.56
9969;BME280;5025;48.890;9.278;2024-02-26T02:31:07;96935.38;;;8.20;57.53
9969;BME280;5025;48.890;9.278;2024-02-26T02:33:33;96932.94;;;8.14;57.61
9969;BME280;5025;48.890;9.278;2024-02-26T02:35:59;96937.78;;;8.17;57.98
9969;BME280;5025;48.890;9.278;2024-02-26T02:38:24;96930.25;;;8.14;58.02
9969;BME280;5025;48.890;9.278;2024-02-26T02:40:54;96935.09;;;8.17;58.13
9969;BME280;5025;48.890;9.278;2024-02-26T02:43:19;96918.97;;;8.17;58.02
9969;BME280;5025;48.890;9.278;2024-02-26T02:45:44;96927.56;;;8.19;58.15
9969;BME280;5025;48.890;9.278;2024-02-26T02:48:10;96927.56;;;8.19;58.02
9969;BME280;5025;48.890;9.278;2024-02-26T02:50:36;96923.00;;;8.19;58.22
9969;BME280;5025;48.890;9.278;2024-02-26T02:53:01;96916.81;;;8.19;58.24
9969;BME280;5025;48.890;9.278;2024-02-26T02:55:27;96933.50;;;8.21;58.38
9969;BME280;5025;48.890;9.278;2024-02-26T02:57:52;96943.72;;;8.19;58.49
9969;BME280;5025;48.890;9.278;2024-02-26T03:00:17;96945.84;;;8.17;58.55
9969;BME280;5025;48.890;9.278;2024-02-26T03:02:43;96953.34;;;8.15;58.64
9969;BME280;5025;48.890;9.278;2024-02-26T03:05:10;96941.78;;;8.14;58.76
9969;BME280;5025;48.890;9.278;2024-02-26T03:07:35;96949.59;;;8.16;58.76
9969;BME280;5025;48.890;9.278;2024-02-26T03:10:00;96956.59;;;8.17;58.21
9969;BME280;5025;48.890;9.278;2024-02-26T03:12:25;96949.88;;;8.19;58.33
9969;BME280;5025;48.890;9.278;2024-02-26T03:14:52;96939.44;;;8.23;58.22
9969;BME280;5025;48.890;9.278;2024-02-26T03:17:19;96925.47;;;8.26;57.86
9969;BME280;5025;48.890;9.278;2024-02-26T03:19:44;96939.47;;;8.28;57.98
9969;BME280;5025;48.890;9.278;2024-02-26T03:22:18;96947.50;;;8.23;58.16
9969;BME280;5025;48.890;9.278;2024-02-26T03:24:43;96944.81;;;8.23;58.26
9969;BME280;5025;48.890;9.278;2024-02-26T03:27:08;96958.81;;;8.25;58.33
9969;BME280;5025;48.890;9.278;2024-02-26T03:29:35;96959.84;;;8.19;58.61
9969;BME280;5025;48.890;9.278;2024-02-26T03:32:00;96944.47;;;8.14;59.17
9969;BME280;5025;48.890;9.278;2024-02-26T03:34:25;96942.84;;;8.13;59.28
9969;BME280;5025;48.890;9.278;2024-02-26T03:36:51;96942.84;;;8.13;59.47
9969;BME280;5025;48.890;9.278;2024-02-26T03:39:17;96928.59;;;8.13;59.55
9969;BME280;5025;48.890;9.278;2024-02-26T03:41:42;96940.94;;;8.08;60.12
9969;BME280;5025;48.890;9.278;2024-02-26T03:44:07;96921.56;;;8.06;60.47
9969;BME280;5025;48.890;9.278;2024-02-26T03:46:32;96928.28;;;8.04;60.65
9969;BME280;5025;48.890;9.278;2024-02-26T03:48:58;96937.41;;;8.03;60.66
9969;BME280;5025;48.890;9.278;2024-02-26T03:51:23;96939.28;;;8.02;60.86
9969;BME280;5025;48.890;9.278;2024-02-26T03:53:48;96930.16;;;8.03;60.82
9969;BME280;5025;48.890;9.278;2024-02-26T03:56:13;96925.59;;;8.04;60.94
9969;BME280;5025;48.890;9.278;2024-02-26T03:58:39;96912.97;;;8.04;60.83
9969;BME280;5025;48.890;9.278;2024-02-26T04:01:07;96913.50;;;8.06;61.01
9969;BME280;5025;48.890;9.278;2024-02-26T04:03:32;96901.13;;;8.05;61.04
9969;BME280;5025;48.890;9.278;2024-02-26T04:05:58;96910.81;;;8.06;61.03
9969;BME280;5025;48.890;9.278;2024-02-26T04:08:23;96904.38;;;8.07;61.09
9969;BME280;5025;48.890;9.278;2024-02-26T04:10:48;96890.38;;;8.05;61.24
9969;BME280;5025;48.890;9.278;2024-02-26T04:13:13;96886.88;;;8.05;61.46
9969;BME280;5025;48.890;9.278;2024-02-26T04:15:39;96895.22;;;8.03;61.57
9969;BME280;5025;48.890;9.278;2024-02-26T04:18:05;96897.09;;;8.03;61.65
9969;BME280;5025;48.890;9.278;2024-02-26T04:20:30;96895.47;;;8.02;61.84
9969;BME280;5025;48.890;9.278;2024-02-26T04:22:55;96895.47;;;8.02;61.87
9969;BME280;5025;48.890;9.278;2024-02-26T04:25:20;96903.78;;;8.00;61.95
9969;BME280;5025;48.890;9.278;2024-02-26T04:27:46;96903.00;;;8.00;62.16
9969;BME280;5025;48.890;9.278;2024-02-26T04:30:11;96906.75;;;7.99;62.06
9969;BME280;5025;48.890;9.278;2024-02-26T04:32:36;96902.69;;;7.96;62.25
9969;BME280;5025;48.890;9.278;2024-02-26T04:35:02;96898.91;;;7.92;62.53
9969;BME280;5025;48.890;9.278;2024-02-26T04:37:28;96893.53;;;7.92;62.66
9969;BME280;5025;48.890;9.278;2024-02-26T04:39:58;96890.84;;;7.92;62.82
9969;BME280;5025;48.890;9.278;2024-02-26T04:42:23;96887.63;;;7.90;62.80
9969;BME280;5025;48.890;9.278;2024-02-26T04:44:48;96889.72;;;7.88;63.01
9969;BME280;5025;48.890;9.278;2024-02-26T04:47:13;96877.63;;;7.85;62.93
9969;BME280;5025;48.890;9.278;2024-02-26T04:49:39;96883.56;;;7.87;62.83
9969;BME280;5025;48.890;9.278;2024-02-26T04:52:04;96886.50;;;7.86;62.98
9969;BME280;5025;48.890;9.278;2024-02-26T04:54:29;96891.88;;;7.86;63.07
9969;BME280;5025;48.890;9.278;2024-02-26T04:56:55;96889.72;;;7.83;63.22
9969;BME280;5025;48.890;9.278;2024-02-26T04:59:20;96875.47;;;7.82;63.34
9969;BME280;5025;48.890;9.278;2024-02-26T05:01:45;96873.59;;;7.83;63.35
9969;BME280;5025;48.890;9.278;2024-02-26T05:04:11;96882.75;;;7.87;63.23
9969;BME280;5025;48.890;9.278;2024-02-26T05:06:37;96880.59;;;7.84;63.23
9969;BME280;5025;48.890;9.278;2024-02-26T05:09:02;96886.75;;;7.84;63.30
9969;BME280;5025;48.890;9.278;2024-02-26T05:11:28;96886.22;;;7.82;63.16
9969;BME280;5025;48.890;9.278;2024-02-26T05:13:53;96898.50;;;7.73;63.38
9969;BME280;5025;48.890;9.278;2024-02-26T05:16:19;96905.97;;;7.66;63.85
9969;BME280;5025;48.890;9.278;2024-02-26T05:18:46;96907.03;;;7.65;63.80
9969;BME280;5025;48.890;9.278;2024-02-26T05:21:11;96896.78;;;7.62;63.79
9969;BME280;5025;48.890;9.278;2024-02-26T05:23:36;96898.63;;;7.56;63.93
9969;BME280;5025;48.890;9.278;2024-02-26T05:26:02;96915.81;;;7.55;63.89
9969;BME280;5025;48.890;9.278;2024-02-26T05:28:27;96901.06;;;7.58;64.00
9969;BME280;5025;48.890;9.278;2024-02-26T05:30:52;96892.50;;;7.61;63.77
9969;BME280;5025;48.890;9.278;2024-02-26T05:33:17;96909.44;;;7.66;63.84
9969;BME280;5025;48.890;9.278;2024-02-26T05:35:43;96921.03;;;7.67;63.81
9969;BME280;5025;48.890;9.278;2024-02-26T05:38:08;96921.81;;;7.67;63.89
9969;BME280;5025;48.890;9.278;2024-02-26T05:40:33;96923.47;;;7.68;63.99
9969;BME280;5025;48.890;9.278;2024-02-26T05:42:58;96936.31;;;7.66;63.97
9969;BME280;5025;48.890;9.278;2024-02-26T05:45:24;96943.53;;;7.61;64.37
9969;BME280;5025;48.890;9.278;2024-02-26T05:47:49;96946.47;;;7.59;64.28
9969;BME280;5025;48.890;9.278;2024-02-26T05:50:15;96941.63;;;7.56;64.41
9969;BME280;5025;48.890;9.278;2024-02-26T05:52:40;96965.53;;;7.58;64.51
9969;BME280;5025;48.890;9.278;2024-02-26T05:55:06;96987.22;;;7.51;64.68
9969;BME280;5025;48.890;9.278;2024-02-26T05:57:33;96990.91;;;7.45;65.33
9969;BME280;5025;48.890;9.278;2024-02-26T05:59:58;96995.78;;;7.48;65.21
9969;BME280;5025;48.890;9.278;2024-02-26T06:02:28;96989.91;;;7.51;65.09
9969;BME280;5025;48.890;9.278;2024-02-26T06:04:53;96995.25;;;7.51;65.22
9969;BME280;5025;48.890;9.278;2024-02-26T06:07:20;96984.00;;;7.54;65.25
9969;BME280;5025;48.890;9.278;2024-02-26T06:09:45;96985.69;;;7.60;64.94
9969;BME280;5025;48.890;9.278;2024-02-26T06:12:10;96982.25;;;7.65;64.90
9969;BME280;5025;48.890;9.278;2024-02-26T06:14:35;96981.72;;;7.68;64.79
9969;BME280;5025;48.890;9.278;2024-02-26T06:17:01;96993.31;;;7.68;64.75
9969;BME280;5025;48.890;9.278;2024-02-26T06:19:26;96992.81;;;7.71;64.64
9969;BME280;5025;48.890;9.278;2024-02-26T06:21:51;96979.13;;;7.73;64.54
9969;BME280;5025;48.890;9.278;2024-02-26T06:24:16;96975.66;;;7.78;64.46
9969;BME280;5025;48.890;9.278;2024-02-26T06:26:42;96984.28;;;7.80;64.41
9969;BME280;5025;48.890;9.278;2024-02-26T06:29:07;96982.63;;;7.79;64.62
9969;BME280;5025;48.890;9.278;2024-02-26T06:31:32;96981.56;;;7.80;64.82
9969;BME280;5025;48.890;9.278;2024-02-26T06:33:57;96989.66;;;7.80;64.96
9969;BME280;5025;48.890;9.278;2024-02-26T06:36:23;96990.16;;;7.77;65.40
9969;BME280;5025;48.890;9.278;2024-02-26T06:38:48;96997.16;;;7.78;65.67
9969;BME280;5025;48.890;9.278;2024-02-26T06:41:14;96986.34;;;7.72;66.01
9969;BME280;5025;48.890;9.278;2024-02-26T06:43:39;96983.66;;;7.72;66.22
9969;BME280;5025;48.890;9.278;2024-02-26T06:46:06;96984.50;;;7.73;66.42
9969;BME280;5025;48.890;9.278;2024-02-26T06:48:31;96989.03;;;7.72;66.73
9969;BME280;5025;48.890;9.278;2024-02-26T06:50:57;96985.78;;;7.70;66.76
9969;BME280;5025;48.890;9.278;2024-02-26T06:53:22;96988.72;;;7.69;66.97
9969;BME280;5025;48.890;9.278;2024-02-26T06:55:47;96990.38;;;7.70;67.13
9969;BME280;5025;48.890;9.278;2024-02-26T06:58:15;96994.09;;;7.69;67.35
9969;BME280;5025;48.890;9.278;2024-02-26T07:00:40;97007.78;;;7.67;67.67
9969;BME280;5025;48.890;9.278;2024-02-26T07:03:05;97008.59;;;7.68;67.62
9969;BME280;5025;48.890;9.278;2024-02-26T07:05:31;97008.59;;;7.68;67.67
9969;BME280;5025;48.890;9.278;2024-02-26T07:07:56;97018.53;;;7.67;68.05
9969;BME280;5025;48.890;9.278;2024-02-26T07:10:21;97020.94;;;7.64;68.21
9969;BME280;5025;48.890;9.278;2024-02-26T07:12:46;97018.25;;;7.64;68.33
9969;BME280;5025;48.890;9.278;2024-02-26T07:15:12;97038.91;;;7.63;68.60
9969;BME280;5025;48.890;9.278;2024-02-26T07:17:37;97042.19;;;7.65;68.49
9969;BME280;5025;48.890;9.278;2024-02-26T07:20:02;97044.84;;;7.65;68.53
9969;BME280;5025;48.890;9.278;2024-02-26T07:22:30;97040.84;;;7.68;68.71
9969;BME280;5025;48.890;9.278;2024-02-26T07:24:56;97044.91;;;7.70;68.50
9969;BME280;5025;48.890;9.278;2024-02-26T07:27:21;97047.34;;;7.72;68.65
9969;BME280;5025;48.890;9.278;2024-02-26T07:29:47;97064.69;;;7.59;69.14
9969;BME280;5025;48.890;9.278;2024-02-26T07:32:12;97066.19;;;7.50;70.15
9969;BME280;5025;48.890;9.278;2024-02-26T07:34:37;97065.69;;;7.53;70.02
9969;BME280;5025;48.890;9.278;2024-02-26T07:37:06;97070.56;;;7.56;69.79
9969;BME280;5025;48.890;9.278;2024-02-26T07:39:31;97063.03;;;7.58;69.84
9969;BME280;5025;48.890;9.278;2024-02-26T07:41:57;97055.28;;;7.62;69.89
9969;BME280;5025;48.890;9.278;2024-02-26T07:44:22;97058.28;;;7.65;69.77
9969;BME280;5025;48.890;9.278;2024-02-26T07:46:48;97063.66;;;7.65;69.92
9969;BME280;5025;48.890;9.278;2024-02-26T07:49:13;97055.53;;;7.60;70.57
9969;BME280;5025;48.890;9.278;2024-02-26T07:51:38;97070.09;;;7.64;70.47
9969;BME280;5025;48.890;9.278;2024-02-26T07:54:03;97063.97;;;7.69;70.56
9969;BME280;5025;48.890;9.278;2024-02-26T07:56:29;97059.47;;;7.75;70.39
9969;BME280;5025;48.890;9.278;2024-02-26T07:58:54;97071.31;;;7.79;70.50
9969;BME280;5025;48.890;9.278;2024-02-26T08:01:19;97080.50;;;7.83;70.62
9969;BME280;5025;48.890;9.278;2024-02-26T08:03:44;97072.97;;;7.85;70.58
9969;BME280;5025;48.890;9.278;2024-02-26T08:06:10;97075.16;;;7.88;70.65
9969;BME280;5025;48.890;9.278;2024-02-26T08:08:35;97075.75;;;7.90;70.63
9969;BME280;5025;48.890;9.278;2024-02-26T08:11:00;97085.97;;;7.93;70.76
9969;BME280;5025;48.890;9.278;2024-02-26T08:13:26;97076.03;;;7.94;71.04
9969;BME280;5025;48.890;9.278;2024-02-26T08:15:51;97065.03;;;7.95;71.06
9969;BME280;5025;48.890;9.278;2024-02-26T08:18:17;97080.41;;;8.00;71.38
9969;BME280;5025;48.890;9.278;2024-02-26T08:20:42;97069.41;;;8.01;71.39
9969;BME280;5025;48.890;9.278;2024-02-26T08:23:07;97079.06;;;8.02;71.37
9969;BME280;5025;48.890;9.278;2024-02-26T08:25:32;97078.81;;;8.04;71.50
9969;BME280;5025;48.890;9.278;2024-02-26T08:27:58;97077.78;;;8.10;71.71
9969;BME280;5025;48.890;9.278;2024-02-26T08:30:23;97079.16;;;8.13;71.58
9969;BME280;5025;48.890;9.278;2024-02-26T08:32:48;97072.47;;;8.15;72.17
9969;BME280;5025;48.890;9.278;2024-02-26T08:35:14;97066.84;;;8.17;72.31
9969;BME280;5025;48.890;9.278;2024-02-26T08:37:40;97072.78;;;8.19;72.25
9969;BME280;5025;48.890;9.278;2024-02-26T08:40:06;97071.72;;;8.20;72.43
9969;BME280;5025;48.890;9.278;2024-02-26T08:42:31;97079.78;;;8.20;72.39
9969;BME280;5025;48.890;9.278;2024-02-26T08:44:57;97073.56;;;8.19;72.97
9969;BME280;5025;48.890;9.278;2024-02-26T08:47:25;97071.19;;;8.23;73.06
9969;BME280;5025;48.890;9.278;2024-02-26T08:49:50;97071.22;;;8.28;73.28
9969;BME280;5025;48.890;9.278;2024-02-26T08:52:15;97067.50;;;8.29;73.40
9969;BME280;5025;48.890;9.278;2024-02-26T08:54:40;97066.72;;;8.34;73.58
9969;BME280;5025;48.890;9.278;2024-02-26T08:57:06;97072.66;;;8.36;73.92
9969;BME280;5025;48.890;9.278;2024-02-26T08:59:31;97074.53;;;8.35;74.18
9969;BME280;5025;48.890;9.278;2024-02-26T09:01:57;97083.69;;;8.39;74.21
9969;BME280;5025;48.890;9.278;2024-02-26T09:04:22;97077.00;;;8.42;74.52
9969;BME280;5025;48.890;9.278;2024-02-26T09:06:47;97078.63;;;8.43;74.71
9969;BME280;5025;48.890;9.278;2024-02-26T09:09:12;97075.47;;;8.46;74.86
9969;BME280;5025;48.890;9.278;2024-02-26T09:11:38;97080.00;;;8.46;75.18
9969;BME280;5025;48.890;9.278;2024-02-26T09:14:03;97084.88;;;8.49;75.25
9969;BME280;5025;48.890;9.278;2024-02-26T09:16:29;97092.69;;;8.50;75.56
9969;BME280;5025;48.890;9.278;2024-02-26T09:18:54;97097.25;;;8.50;75.73
9969;BME280;5025;48.890;9.278;2024-02-26T09:21:19;97089.19;;;8.50;75.88
9969;BME280;5025;48.890;9.278;2024-02-26T09:23:52;97093.25;;;8.52;76.04
9969;BME280;5025;48.890;9.278;2024-02-26T09:26:17;97089.78;;;8.57;76.14
9969;BME280;5025;48.890;9.278;2024-02-26T09:28:43;97085.75;;;8.59;76.16
9969;BME280;5025;48.890;9.278;2024-02-26T09:31:08;97080.69;;;8.63;76.08
9969;BME280;5025;48.890;9.278;2024-02-26T09:33:33;97074.53;;;8.68;76.38
9969;BME280;5025;48.890;9.278;2024-02-26T09:35:59;97067.00;;;8.70;76.39
9969;BME280;5025;48.890;9.278;2024-02-26T09:38:26;97075.94;;;8.75;76.33
9969;BME280;5025;48.890;9.278;2024-02-26T09:40:51;97074.31;;;8.79;76.64
9969;BME280;5025;48.890;9.278;2024-02-26T09:43:17;97071.13;;;8.83;76.83
9969;BME280;5025;48.890;9.278;2024-02-26T09:45:46;97075.72;;;8.87;76.89
9969;BME280;5025;48.890;9.278;2024-02-26T09:48:12;97077.09;;;8.90;77.13
9969;BME280;5025;48.890;9.278;2024-02-26T09:50:39;97080.91;;;8.94;77.37
9969;BME280;5025;48.890;9.278;2024-02-26T09:53:06;97088.47;;;8.97;77.53
9969;BME280;5025;48.890;9.278;2024-02-26T09:55:35;97093.00;;;8.96;77.61
9969;BME280;5025;48.890;9.278;2024-02-26T09:58:00;97094.91;;;8.96;77.86
9969;BME280;5025;48.890;9.278;2024-02-26T10:00:27;97099.78;;;8.99;77.78
9969;BME280;5025;48.890;9.278;2024-02-26T10:02:57;97101.13;;;9.02;78.29
9969;BME280;5025;48.890;9.278;2024-02-26T10:05:24;97098.72;;;9.05;78.30
9969;BME280;5025;48.890;9.278;2024-02-26T10:07:52;97099.84;;;9.09;78.30
9969;BME280;5025;48.890;9.278;2024-02-26T10:10:17;97093.41;;;9.15;78.32
9969;BME280;5025;48.890;9.278;2024-02-26T10:12:43;97083.44;;;9.21;78.41
9969;BME280;5025;48.890;9.278;2024-02-26T10:15:08;97093.19;;;9.27;78.41
9969;BME280;5025;48.890;9.278;2024-02-26T10:17:34;97094.03;;;9.38;78.47
9969;BME280;5025;48.890;9.278;2024-02-26T10:20:16;97092.19;;;9.44;78.54
9969;BME280;5025;48.890;9.278;2024-02-26T10:22:42;97094.09;;;9.48;78.84
9969;BME280;5025;48.890;9.278;2024-02-26T10:25:08;97111.91;;;9.60;79.03
9969;BME280;5025;48.890;9.278;2024-02-26T10:27:34;97112.75;;;9.71;78.99
9969;BME280;5025;48.890;9.278;2024-02-26T10:30:15;97113.59;;;9.81;79.04
9969;BME280;5025;48.890;9.278;2024-02-26T10:32:43;97109.31;;;9.91;78.68
9969;BME280;5025;48.890;9.278;2024-02-26T10:35:09;97117.19;;;10.08;78.66
9969;BME280;5025;48.890;9.278;2024-02-26T10:37:34;97102.91;;;10.22;78.15
9969;BME280;5025;48.890;9.278;2024-02-26T10:39:59;97095.41;;;10.40;77.29
9969;BME280;5025;48.890;9.278;2024-02-26T10:42:26;97101.88;;;10.54;76.82
9969;BME280;5025;48.890;9.278;2024-02-26T10:44:51;97114.56;;;10.69;76.17
9969;BME280;5025;48.890;9.278;2024-02-26T10:47:16;97097.03;;;10.77;75.44
9969;BME280;5025;48.890;9.278;2024-02-26T10:49:48;97094.81;;;10.84;74.56
9969;BME280;5025;48.890;9.278;2024-02-26T10:52:13;97108.34;;;10.94;73.92
9969;BME280;5025;48.890;9.278;2024-02-26T10:54:41;97108.88;;;11.02;73.11
9969;BME280;5025;48.890;9.278;2024-02-26T10:57:08;97109.13;;;11.05;72.17
9969;BME280;5025;48.890;9.278;2024-02-26T10:59:34;97102.91;;;11.10;71.42
9969;BME280;5025;48.890;9.278;2024-02-26T11:02:00;97105.59;;;11.20;70.82
9969;BME280;5025;48.890;9.278;2024-02-26T11:04:26;97106.38;;;11.31;70.00
9969;BME280;5025;48.890;9.278;2024-02-26T11:06:54;97106.88;;;11.38;69.28
9969;BME280;5025;48.890;9.278;2024-02-26T11:09:22;97099.28;;;11.45;68.54
9969;BME280;5025;48.890;9.278;2024-02-26T11:11:48;97101.13;;;11.55;68.15
9969;BME280;5025;48.890;9.278;2024-02-26T11:14:14;97099.50;;;11.59;67.56
9969;BME280;5025;48.890;9.278;2024-02-26T11:16:39;97105.69;;;11.70;66.78
9969;BME280;5025;48.890;9.278;2024-02-26T11:19:06;97104.00;;;11.79;66.18
9969;BME280;5025;48.890;9.278;2024-02-26T11:21:34;97109.91;;;11.92;65.35
9969;BME280;5025;48.890;9.278;2024-02-26T11:24:14;97113.13;;;12.04;64.70
9969;BME280;5025;48.890;9.278;2024-02-26T11:26:46;97104.63;;;12.16;64.07
9969;BME280;5025;48.890;9.278;2024-02-26T11:29:16;97105.66;;;12.25;63.22
9969;BME280;5025;48.890;9.278;2024-02-26T11:31:43;97100.47;;;12.34;62.72
9969;BME280;5025;48.890;9.278;2024-02-26T11:34:09;97101.75;;;12.42;62.26
9969;BME280;5025;48.890;9.278;2024-02-26T11:36:34;97102.31;;;12.38;61.72
9969;BME280;5025;48.890;9.278;2024-02-26T11:39:01;97106.94;;;12.38;61.46
9969;BME280;5025;48.890;9.278;2024-02-26T11:41:27;97102.09;;;12.35;61.32
9969;BME280;5025;48.890;9.278;2024-02-26T11:43:57;97099.91;;;12.37;60.89
9969;BME280;5025;48.890;9.278;2024-02-26T11:46:33;97101.53;;;12.38;60.60
9969;BME280;5025;48.890;9.278;2024-02-26T11:51:28;97110.41;;;12.44;60.42
9969;BME280;5025;48.890;9.278;2024-02-26T11:53:57;97112.03;;;12.45;60.29
9969;BME280;5025;48.890;9.278;2024-02-26T11:56:24;97113.94;;;12.44;59.79
9969;BME280;5025;48.890;9.278;2024-02-26T11:59:09;97109.03;;;12.46;59.06
9969;BME280;5025;48.890;9.278;2024-02-26T12:01:45;97111.19;;;12.49;58.50
9969;BME280;5025;48.890;9.278;2024-02-26T12:04:18;97111.97;;;12.55;57.95
9969;BME280;5025;48.890;9.278;2024-02-26T12:06:54;97112.16;;;12.64;57.95
9969;BME280;5025;48.890;9.278;2024-02-26T12:09:39;97113.97;;;12.73;57.68
9969;BME280;5025;48.890;9.278;2024-02-26T12:12:06;97117.44;;;12.79;57.36
9969;BME280;5025;48.890;9.278;2024-02-26T12:14:38;97107.66;;;12.83;57.10
9969;BME280;5025;48.890;9.278;2024-02-26T12:17:04;97106.03;;;12.82;57.03
9969;BME280;5025;48.890;9.278;2024-02-26T12:19:33;97116.88;;;12.82;56.96
9969;BME280;5025;48.890;9.278;2024-02-26T12:21:59;97111.72;;;12.81;56.75
9969;BME280;5025;48.890;9.278;2024-02-26T12:24:24;97122.06;;;12.79;56.41
9969;BME280;5025;48.890;9.278;2024-02-26T12:26:49;97124.25;;;12.77;56.26
9969;BME280;5025;48.890;9.278;2024-02-26T12:29:14;97121.81;;;12.75;56.24
9969;BME280;5025;48.890;9.278;2024-02-26T12:31:40;97122.41;;;12.72;56.32
9969;BME280;5025;48.890;9.278;2024-02-26T12:34:07;97129.19;;;12.69;56.23
9969;BME280;5025;48.890;9.278;2024-02-26T12:36:34;97123.25;;;12.67;55.92
9969;BME280;5025;48.890;9.278;2024-02-26T12:39:00;97127.03;;;12.66;55.81
9969;BME280;5025;48.890;9.278;2024-02-26T12:41:27;97129.22;;;12.64;55.79
9969;BME280;5025;48.890;9.278;2024-02-26T12:43:53;97125.97;;;12.62;55.53
9969;BME280;5025;48.890;9.278;2024-02-26T12:46:18;97130.31;;;12.63;55.48
9969;BME280;5025;48.890;9.278;2024-02-26T12:48:43;97132.50;;;12.61;55.37
9969;BME280;5025;48.890;9.278;2024-02-26T12:51:11;97130.59;;;12.62;55.05
9969;BME280;5025;48.890;9.278;2024-02-26T12:53:38;97131.66;;;12.61;54.98
9969;BME280;5025;48.890;9.278;2024-02-26T12:56:04;97136.25;;;12.65;54.66
9969;BME280;5025;48.890;9.278;2024-02-26T12:58:31;97135.38;;;12.70;54.58
9969;BME280;5025;48.890;9.278;2024-02-26T13:00:57;97141.00;;;12.79;54.37
9969;BME280;5025;48.890;9.278;2024-02-26T13:03:22;97143.38;;;12.85;54.33
9969;BME280;5025;48.890;9.278;2024-02-26T13:05:48;97134.97;;;12.87;54.22
9969;BME280;5025;48.890;9.278;2024-02-26T13:08:19;97141.44;;;12.91;53.92
9969;BME280;5025;48.890;9.278;2024-02-26T13:10:45;97139.84;;;12.90;53.97
9969;BME280;5025;48.890;9.278;2024-02-26T13:13:11;97149.81;;;12.95;53.80
9969;BME280;5025;48.890;9.278;2024-02-26T13:15:36;97146.25;;;12.99;53.69
9969;BME280;5025;48.890;9.278;2024-02-26T13:18:12;97143.81;;;13.03;53.54
9969;BME280;5025;48.890;9.278;2024-02-26T13:20:37;97147.03;;;13.05;53.55
9969;BME280;5025;48.890;9.278;2024-02-26T13:23:07;97150.50;;;13.11;53.20
9969;BME280;5025;48.890;9.278;2024-02-26T13:25:34;97153.72;;;13.13;53.38